Impacts METAR Board
IDs:

KMIA - Miami Intl, FL, US

Updated at: 2100 UTC 15 Jun 2019
Potential Impact None Slight Moderate High
Time 15/09Z 15/10Z 15/11Z 15/12Z 15/13Z 15/14Z 15/15Z 15/16Z 15/17Z 15/18Z 15/19Z 15/20Z 15/21Z
Temp79 79 78 81 85 86 87 85 83 88 82 79 79
Dewpt75 74 74 74 75 73 72 74 71 74 71 72 71
Altim30.03 30.05 30.06 30.07 30.08 30.08 30.09 30.10 30.09 30.07 30.06 30.07 30.06
VIS10 10 10 10 10 10 10 10 10 10 10 10 10
CIG-- -- 250 250 250 250 50 31 24 60 30 110 100
CoverSCTSCTBKNBKNBKNBKNBKNBKNBKNBKNOVCOVCOVC
FltCatVFRVFRVFRVFRVFRVFRVFRVFRMVFRVFRMVFRVFRVFR
WX--------------TS----------
WDir000010011050100330901701400
WSpd0 0 0 0 3 8 4 7 6 8 10 6 0
WGst-- -- -- -- -- -- -- -- -- -- 18 -- --
Raw hourly METARs
KMIA 150853Z 00000KT 10SM FEW018 FEW120 SCT230 26/24 A3003 RMK AO2 SLP170 T02610239 55008
KMIA 150953Z 00000KT 10SM FEW018 FEW120 SCT240 26/23 A3005 RMK AO2 SLP174 T02610233
KMIA 151053Z 00000KT 10SM FEW018 FEW070 BKN250 26/23 A3006 RMK AO2 SLP178 CB DSNT S TCU DSNT N-SE T02560233
KMIA 151153Z 00000KT 10SM FEW020TCU FEW055 BKN250 27/23 A3007 RMK AO2 SLP183 CB DSNT N-NE AND S-SW TCU NE AND DSNT E-SE 70067 T02720233 10272 20256 53012
KMIA 151253Z 10003KT 10SM FEW020 SCT040 BKN250 29/24 A3008 RMK AO2 SLP186 CB DSNT N-NE MOV NW T02940239
KMIA 151353Z 11008KT 10SM SCT024TCU SCT070 BKN250 30/23 A3008 RMK AO2 SLP187 CB DSNT NE TCU SE AND W T03000228
KMIA 151453Z 05004KT 10SM SCT026CB BKN050 BKN250 31/22 A3009 RMK AO2 SLP189 CB N AND E-SE MOV NW TCU DSNT W-NW T03060222 51007
KMIA 151553Z 10007KT 10SM TS SCT026CB BKN031 BKN045 BKN250 29/23 A3010 RMK AO2 RAB36E50 TSB48 SLP192 OCNL LTGICCG W AND DSNT E TS W MOV W CB DSNT N-SE MOV W P0000 T02940233
KMIA 151659Z 33006KT 10SM BKN024 BKN030 28/22 A3009 RMK AO2 LTG DSNT NW T02830217
KMIA 151753Z 09008KT 10SM SCT024 BKN060 BKN150 BKN250 31/23 A3007 RMK AO2 LTG DSNT SE-W SLP182 CB DSNT ALQDS MOV W 60000 T03110233 10317 20272 58007
KMIA 151853Z COR 17010G18KT 10SM BKN030CB BKN120 OVC250 28/22 A3006 RMK AO2 LTG DSNT SE AND S AND NW SLP180 CB SE MOV NW CB DSNT SW-NW-N MOV STNRY T02780217
KMIA 151953Z 14006KT 10SM FEW028CB SCT075 BKN110 OVC250 26/22 A3007 RMK AO2 LTG DSNT ALQDS RAB1858E31 SLP181 CB NW-NE MOV NW P0015 T02610222
KMIA 152053Z 00000KT 10SM FEW028 FEW070 BKN100 OVC200 26/22 A3006 RMK AO2 LTG DSNT W-N SLP178 CB DSNT NW-N MOV W 60015 T02610217 58004



Page loaded:  21:06 UTC  |   02:06 PM Pacific  |   03:06 PM Mountain  |   04:06 PM Central  |   05:06 PM Eastern

 

ADVISORIES

FORECASTS

FORECASTS

OBSERVATIONS

USER TOOLS

ABOUT US